sensor_id;sensor_type;location;lat;lon;timestamp;P1;durP1;ratioP1;P2;durP2;ratioP2
51738;SDS011;37815;52.692;6.226;2022-10-04T00:09:14;4.18;;;2.25;;
51738;SDS011;37815;52.692;6.226;2022-10-04T00:14:37;5.05;;;2.47;;
51738;SDS011;37815;52.692;6.226;2022-10-04T00:19:57;3.65;;;2.20;;
51738;SDS011;37815;52.692;6.226;2022-10-04T00:25:18;3.60;;;2.53;;
51738;SDS011;37815;52.692;6.226;2022-10-04T00:30:38;4.95;;;2.40;;
51738;SDS011;37815;52.692;6.226;2022-10-04T00:35:57;5.50;;;2.70;;
51738;SDS011;37815;52.692;6.226;2022-10-04T00:41:17;8.50;;;2.90;;
51738;SDS011;37815;52.692;6.226;2022-10-04T00:46:39;4.68;;;2.70;;
51738;SDS011;37815;52.692;6.226;2022-10-04T00:52:06;4.13;;;2.25;;
51738;SDS011;37815;52.692;6.226;2022-10-04T00:57:33;4.68;;;2.40;;
51738;SDS011;37815;52.692;6.226;2022-10-04T01:03:00;4.97;;;2.60;;
51738;SDS011;37815;52.692;6.226;2022-10-04T01:08:27;3.38;;;2.65;;
51738;SDS011;37815;52.692;6.226;2022-10-04T01:24:44;6.88;;;2.80;;
51738;SDS011;37815;52.692;6.226;2022-10-04T01:30:05;5.00;;;2.33;;
51738;SDS011;37815;52.692;6.226;2022-10-04T01:35:27;5.75;;;2.63;;
51738;SDS011;37815;52.692;6.226;2022-10-04T01:40:54;4.75;;;2.95;;
51738;SDS011;37815;52.692;6.226;2022-10-04T01:46:19;9.60;;;2.95;;
51738;SDS011;37815;52.692;6.226;2022-10-04T01:51:44;6.22;;;2.58;;
51738;SDS011;37815;52.692;6.226;2022-10-04T01:57:14;4.55;;;2.30;;
51738;SDS011;37815;52.692;6.226;2022-10-04T02:02:42;5.82;;;2.40;;
51738;SDS011;37815;52.692;6.226;2022-10-04T02:08:11;4.28;;;2.40;;
51738;SDS011;37815;52.692;6.226;2022-10-04T02:13:35;4.28;;;2.08;;
51738;SDS011;37815;52.692;6.226;2022-10-04T02:18:56;4.53;;;2.58;;
51738;SDS011;37815;52.692;6.226;2022-10-04T02:24:16;4.35;;;2.40;;
51738;SDS011;37815;52.692;6.226;2022-10-04T02:29:36;4.03;;;2.28;;
51738;SDS011;37815;52.692;6.226;2022-10-04T02:34:56;6.88;;;2.60;;
51738;SDS011;37815;52.692;6.226;2022-10-04T02:40:17;3.90;;;2.22;;
51738;SDS011;37815;52.692;6.226;2022-10-04T02:45:51;3.58;;;2.30;;
51738;SDS011;37815;52.692;6.226;2022-10-04T02:51:16;5.60;;;2.40;;
51738;SDS011;37815;52.692;6.226;2022-10-04T02:56:49;4.38;;;2.88;;
51738;SDS011;37815;52.692;6.226;2022-10-04T03:02:24;5.95;;;2.40;;
51738;SDS011;37815;52.692;6.226;2022-10-04T03:07:47;6.15;;;2.50;;
51738;SDS011;37815;52.692;6.226;2022-10-04T03:13:09;6.75;;;2.72;;
51738;SDS011;37815;52.692;6.226;2022-10-04T03:18:30;4.93;;;2.80;;
51738;SDS011;37815;52.692;6.226;2022-10-04T03:23:52;5.15;;;2.60;;
51738;SDS011;37815;52.692;6.226;2022-10-04T03:29:13;5.30;;;2.60;;
51738;SDS011;37815;52.692;6.226;2022-10-04T03:34:35;4.00;;;2.72;;
51738;SDS011;37815;52.692;6.226;2022-10-04T03:39:58;6.07;;;2.90;;
51738;SDS011;37815;52.692;6.226;2022-10-04T03:45:19;6.47;;;2.50;;
51738;SDS011;37815;52.692;6.226;2022-10-04T03:50:44;5.50;;;2.35;;
51738;SDS011;37815;52.692;6.226;2022-10-04T03:56:10;4.68;;;2.53;;
51738;SDS011;37815;52.692;6.226;2022-10-04T04:01:40;6.75;;;2.70;;
51738;SDS011;37815;52.692;6.226;2022-10-04T04:07:24;3.20;;;2.25;;
51738;SDS011;37815;52.692;6.226;2022-10-04T04:18:32;6.22;;;2.40;;
51738;SDS011;37815;52.692;6.226;2022-10-04T04:24:10;7.93;;;2.72;;
51738;SDS011;37815;52.692;6.226;2022-10-04T04:29:35;5.75;;;2.72;;
51738;SDS011;37815;52.692;6.226;2022-10-04T04:35:45;5.37;;;2.70;;
51738;SDS011;37815;52.692;6.226;2022-10-04T04:40:58;5.18;;;2.80;;
51738;SDS011;37815;52.692;6.226;2022-10-04T04:46:27;5.63;;;2.78;;
51738;SDS011;37815;52.692;6.226;2022-10-04T04:51:49;4.25;;;2.30;;
51738;SDS011;37815;52.692;6.226;2022-10-04T04:57:09;4.65;;;2.60;;
51738;SDS011;37815;52.692;6.226;2022-10-04T05:02:34;6.20;;;2.58;;
51738;SDS011;37815;52.692;6.226;2022-10-04T05:18:57;7.30;;;2.67;;
51738;SDS011;37815;52.692;6.226;2022-10-04T05:24:23;6.78;;;3.20;;
51738;SDS011;37815;52.692;6.226;2022-10-04T05:35:18;3.58;;;2.50;;
51738;SDS011;37815;52.692;6.226;2022-10-04T05:40:42;5.38;;;2.67;;
51738;SDS011;37815;52.692;6.226;2022-10-04T05:51:52;4.63;;;3.00;;
51738;SDS011;37815;52.692;6.226;2022-10-04T05:57:29;4.75;;;3.05;;
51738;SDS011;37815;52.692;6.226;2022-10-04T06:25:12;9.13;;;4.85;;
51738;SDS011;37815;52.692;6.226;2022-10-04T06:31:15;6.60;;;3.35;;
51738;SDS011;37815;52.692;6.226;2022-10-04T06:48:27;5.47;;;3.20;;
51738;SDS011;37815;52.692;6.226;2022-10-04T07:05:45;6.90;;;3.90;;
51738;SDS011;37815;52.692;6.226;2022-10-04T07:22:18;5.45;;;3.67;;
51738;SDS011;37815;52.692;6.226;2022-10-04T07:33:41;8.23;;;3.80;;
51738;SDS011;37815;52.692;6.226;2022-10-04T07:39:20;7.32;;;4.25;;
51738;SDS011;37815;52.692;6.226;2022-10-04T07:44:58;7.70;;;4.15;;
51738;SDS011;37815;52.692;6.226;2022-10-04T07:50:26;4.10;;;3.55;;
51738;SDS011;37815;52.692;6.226;2022-10-04T07:55:59;7.63;;;3.55;;
51738;SDS011;37815;52.692;6.226;2022-10-04T08:07:30;8.90;;;3.65;;
51738;SDS011;37815;52.692;6.226;2022-10-04T08:24:15;7.30;;;3.83;;
51738;SDS011;37815;52.692;6.226;2022-10-04T08:30:10;6.53;;;3.80;;
51738;SDS011;37815;52.692;6.226;2022-10-04T08:35:39;7.15;;;3.78;;
51738;SDS011;37815;52.692;6.226;2022-10-04T09:20:44;4.85;;;3.05;;
51738;SDS011;37815;52.692;6.226;2022-10-04T10:06:20;3.67;;;2.90;;
51738;SDS011;37815;52.692;6.226;2022-10-04T10:17:42;4.47;;;2.83;;
51738;SDS011;37815;52.692;6.226;2022-10-04T10:23:18;4.45;;;3.10;;
51738;SDS011;37815;52.692;6.226;2022-10-04T11:20:33;5.60;;;3.10;;
51738;SDS011;37815;52.692;6.226;2022-10-04T11:32:25;6.30;;;3.30;;
51738;SDS011;37815;52.692;6.226;2022-10-04T11:43:50;6.43;;;3.25;;
51738;SDS011;37815;52.692;6.226;2022-10-04T12:00:55;5.67;;;3.30;;
51738;SDS011;37815;52.692;6.226;2022-10-04T12:51:51;6.95;;;2.35;;
51738;SDS011;37815;52.692;6.226;2022-10-04T13:03:14;4.10;;;2.50;;
51738;SDS011;37815;52.692;6.226;2022-10-04T13:08:57;4.65;;;2.47;;
51738;SDS011;37815;52.692;6.226;2022-10-04T13:19:55;6.53;;;2.70;;
51738;SDS011;37815;52.692;6.226;2022-10-04T13:31:23;4.57;;;2.35;;
51738;SDS011;37815;52.692;6.226;2022-10-04T14:27:55;4.78;;;2.30;;
51738;SDS011;37815;52.692;6.226;2022-10-04T14:39:53;4.90;;;2.60;;
51738;SDS011;37815;52.692;6.226;2022-10-04T14:51:08;3.45;;;2.13;;
51738;SDS011;37815;52.692;6.226;2022-10-04T14:57:22;3.58;;;1.83;;
51738;SDS011;37815;52.692;6.226;2022-10-04T15:07:51;3.78;;;2.00;;
51738;SDS011;37815;52.692;6.226;2022-10-04T15:18:43;3.90;;;1.85;;
51738;SDS011;37815;52.692;6.226;2022-10-04T15:24:44;2.15;;;1.80;;
51738;SDS011;37815;52.692;6.226;2022-10-04T16:09:49;6.57;;;2.80;;
51738;SDS011;37815;52.692;6.226;2022-10-04T16:15:36;9.20;;;2.83;;
51738;SDS011;37815;52.692;6.226;2022-10-04T16:27:18;5.05;;;2.60;;
51738;SDS011;37815;52.692;6.226;2022-10-04T16:38:50;8.55;;;3.45;;
51738;SDS011;37815;52.692;6.226;2022-10-04T16:44:45;10.75;;;3.90;;
51738;SDS011;37815;52.692;6.226;2022-10-04T16:51:01;4.63;;;2.80;;
51738;SDS011;37815;52.692;6.226;2022-10-04T17:25:33;5.85;;;3.40;;
51738;SDS011;37815;52.692;6.226;2022-10-04T17:36:38;13.52;;;3.83;;
51738;SDS011;37815;52.692;6.226;2022-10-04T17:54:02;9.27;;;3.23;;
51738;SDS011;37815;52.692;6.226;2022-10-04T17:59:58;5.68;;;3.17;;
51738;SDS011;37815;52.692;6.226;2022-10-04T18:22:26;14.05;;;3.30;;
51738;SDS011;37815;52.692;6.226;2022-10-04T18:44:45;10.57;;;3.60;;
51738;SDS011;37815;52.692;6.226;2022-10-04T18:50:40;7.43;;;3.33;;
51738;SDS011;37815;52.692;6.226;2022-10-04T18:56:02;8.23;;;3.10;;
51738;SDS011;37815;52.692;6.226;2022-10-04T19:13:11;7.17;;;3.33;;
51738;SDS011;37815;52.692;6.226;2022-10-04T19:47:01;8.10;;;3.53;;
51738;SDS011;37815;52.692;6.226;2022-10-04T19:53:05;8.60;;;3.55;;
51738;SDS011;37815;52.692;6.226;2022-10-04T19:58:41;7.32;;;3.22;;
51738;SDS011;37815;52.692;6.226;2022-10-04T20:04:06;6.97;;;3.30;;
51738;SDS011;37815;52.692;6.226;2022-10-04T20:15:48;6.75;;;3.70;;
51738;SDS011;37815;52.692;6.226;2022-10-04T20:21:17;4.38;;;3.25;;
51738;SDS011;37815;52.692;6.226;2022-10-04T20:26:43;9.10;;;3.63;;
51738;SDS011;37815;52.692;6.226;2022-10-04T20:32:10;6.07;;;3.63;;
51738;SDS011;37815;52.692;6.226;2022-10-04T20:48:35;5.82;;;3.33;;
51738;SDS011;37815;52.692;6.226;2022-10-04T20:53:54;7.15;;;3.25;;
51738;SDS011;37815;52.692;6.226;2022-10-04T20:59:14;6.35;;;3.53;;
51738;SDS011;37815;52.692;6.226;2022-10-04T21:04:34;7.15;;;3.45;;
51738;SDS011;37815;52.692;6.226;2022-10-04T21:10:15;6.07;;;3.05;;
51738;SDS011;37815;52.692;6.226;2022-10-04T21:15:38;8.35;;;3.20;;
51738;SDS011;37815;52.692;6.226;2022-10-04T21:21:13;5.93;;;3.60;;
51738;SDS011;37815;52.692;6.226;2022-10-04T21:26:56;8.55;;;3.40;;
51738;SDS011;37815;52.692;6.226;2022-10-04T21:32:15;5.85;;;3.42;;
51738;SDS011;37815;52.692;6.226;2022-10-04T21:37:35;6.03;;;4.18;;
51738;SDS011;37815;52.692;6.226;2022-10-04T21:42:54;7.35;;;4.20;;
51738;SDS011;37815;52.692;6.226;2022-10-04T21:48:13;6.35;;;3.72;;
51738;SDS011;37815;52.692;6.226;2022-10-04T21:53:33;6.80;;;3.50;;
51738;SDS011;37815;52.692;6.226;2022-10-04T21:58:52;8.43;;;3.60;;
51738;SDS011;37815;52.692;6.226;2022-10-04T22:04:11;6.30;;;3.58;;
51738;SDS011;37815;52.692;6.226;2022-10-04T22:09:31;6.90;;;3.33;;
51738;SDS011;37815;52.692;6.226;2022-10-04T22:14:51;6.72;;;3.70;;
51738;SDS011;37815;52.692;6.226;2022-10-04T22:20:10;5.35;;;3.70;;
51738;SDS011;37815;52.692;6.226;2022-10-04T22:25:29;6.47;;;3.70;;
51738;SDS011;37815;52.692;6.226;2022-10-04T22:30:49;6.75;;;3.60;;
51738;SDS011;37815;52.692;6.226;2022-10-04T22:41:35;4.13;;;3.28;;
51738;SDS011;37815;52.692;6.226;2022-10-04T22:46:59;5.65;;;3.47;;
51738;SDS011;37815;52.692;6.226;2022-10-04T22:52:20;4.28;;;3.20;;
51738;SDS011;37815;52.692;6.226;2022-10-04T22:57:40;5.47;;;3.75;;
51738;SDS011;37815;52.692;6.226;2022-10-04T23:02:59;5.18;;;3.70;;
51738;SDS011;37815;52.692;6.226;2022-10-04T23:08:19;4.72;;;3.40;;
51738;SDS011;37815;52.692;6.226;2022-10-04T23:13:38;5.63;;;3.53;;
51738;SDS011;37815;52.692;6.226;2022-10-04T23:18:59;5.57;;;3.35;;
51738;SDS011;37815;52.692;6.226;2022-10-04T23:24:38;6.43;;;3.67;;
51738;SDS011;37815;52.692;6.226;2022-10-04T23:30:00;6.65;;;3.50;;
51738;SDS011;37815;52.692;6.226;2022-10-04T23:35:24;6.95;;;3.63;;
51738;SDS011;37815;52.692;6.226;2022-10-04T23:40:47;5.75;;;3.67;;
51738;SDS011;37815;52.692;6.226;2022-10-04T23:46:13;5.13;;;3.78;;
51738;SDS011;37815;52.692;6.226;2022-10-04T23:51:36;5.75;;;3.10;;
51738;SDS011;37815;52.692;6.226;2022-10-04T23:56:55;3.85;;;2.97;;
